sensor_id;sensor_type;location;lat;lon;timestamp;pressure;altitude;pressure_sealevel;temperature;humidity
56414;BME280;42318;48.452;19.526;2023-05-22T00:03:54;98369.53;;;21.85;53.56
56414;BME280;42318;48.452;19.526;2023-05-22T00:11:25;98371.47;;;21.84;53.98
56414;BME280;42318;48.452;19.526;2023-05-22T00:18:56;98365.44;;;21.82;54.06
56414;BME280;42318;48.452;19.526;2023-05-22T00:26:27;98348.81;;;21.79;53.67
56414;BME280;42318;48.452;19.526;2023-05-22T00:33:58;98369.28;;;21.81;53.56
56414;BME280;42318;48.452;19.526;2023-05-22T00:41:30;98354.28;;;21.79;53.43
56414;BME280;42318;48.452;19.526;2023-05-22T00:49:03;98348.25;;;21.77;53.60
56414;BME280;42318;48.452;19.526;2023-05-22T00:56:34;98354.28;;;21.79;53.95
56414;BME280;42318;48.452;19.526;2023-05-22T01:04:05;98348.25;;;21.77;53.63
56414;BME280;42318;48.452;19.526;2023-05-22T01:12:01;98349.34;;;21.76;53.83
56414;BME280;42318;48.452;19.526;2023-05-22T01:35:15;98341.72;;;21.73;53.85
56414;BME280;42318;48.452;19.526;2023-05-22T01:42:47;98340.06;;;21.72;53.78
56414;BME280;42318;48.452;19.526;2023-05-22T01:50:18;98326.44;;;21.72;53.90
56414;BME280;42318;48.452;19.526;2023-05-22T01:57:56;98317.41;;;21.66;53.79
56414;BME280;42318;48.452;19.526;2023-05-22T02:05:31;98313.03;;;21.65;53.55
56414;BME280;42318;48.452;19.526;2023-05-22T02:13:05;98315.25;;;21.68;54.01
56414;BME280;42318;48.452;19.526;2023-05-22T02:20:36;98318.22;;;21.67;53.79
56414;BME280;42318;48.452;19.526;2023-05-22T02:28:07;98313.88;;;21.66;54.22
56414;BME280;42318;48.452;19.526;2023-05-22T02:35:37;98305.69;;;21.66;54.17
56414;BME280;42318;48.452;19.526;2023-05-22T02:43:08;98305.97;;;21.64;53.93
56414;BME280;42318;48.452;19.526;2023-05-22T02:50:39;98297.78;;;21.64;54.32
56414;BME280;42318;48.452;19.526;2023-05-22T02:58:10;98298.88;;;21.63;54.07
56414;BME280;42318;48.452;19.526;2023-05-22T03:05:41;98284.41;;;21.62;54.11
56414;BME280;42318;48.452;19.526;2023-05-22T03:13:12;98286.31;;;21.62;54.36
56414;BME280;42318;48.452;19.526;2023-05-22T03:20:43;98282.78;;;21.61;54.20
56414;BME280;42318;48.452;19.526;2023-05-22T03:28:14;98278.41;;;21.60;54.04
56414;BME280;42318;48.452;19.526;2023-05-22T03:35:45;98278.69;;;21.59;53.75
56414;BME280;42318;48.452;19.526;2023-05-22T03:43:16;98275.16;;;21.58;54.02
56414;BME280;42318;48.452;19.526;2023-05-22T03:50:46;98268.88;;;21.58;53.94
56414;BME280;42318;48.452;19.526;2023-05-22T03:58:17;98266.41;;;21.56;53.95
56414;BME280;42318;48.452;19.526;2023-05-22T04:05:48;98266.41;;;21.56;54.06
56414;BME280;42318;48.452;19.526;2023-05-22T04:13:20;98275.69;;;21.55;54.05
56414;BME280;42318;48.452;19.526;2023-05-22T04:20:51;98281.97;;;21.56;53.83
56414;BME280;42318;48.452;19.526;2023-05-22T04:28:22;98265.31;;;21.52;53.98
56414;BME280;42318;48.452;19.526;2023-05-22T04:35:53;98264.78;;;21.55;53.95
56414;BME280;42318;48.452;19.526;2023-05-22T04:43:23;98261.50;;;21.53;53.34
56414;BME280;42318;48.452;19.526;2023-05-22T04:50:56;98268.59;;;21.54;53.81
56414;BME280;42318;48.452;19.526;2023-05-22T04:58:27;98268.59;;;21.54;53.72
56414;BME280;42318;48.452;19.526;2023-05-22T05:05:58;98262.31;;;21.54;53.68
56414;BME280;42318;48.452;19.526;2023-05-22T05:13:30;98251.69;;;21.52;53.89
56414;BME280;42318;48.452;19.526;2023-05-22T05:21:00;98263.41;;;21.53;53.48
56414;BME280;42318;48.452;19.526;2023-05-22T05:28:31;98265.31;;;21.52;53.48
56414;BME280;42318;48.452;19.526;2023-05-22T05:36:02;98260.69;;;21.53;53.44
56414;BME280;42318;48.452;19.526;2023-05-22T05:43:33;98259.06;;;21.52;53.70
56414;BME280;42318;48.452;19.526;2023-05-22T05:51:04;98257.16;;;21.52;53.50
56414;BME280;42318;48.452;19.526;2023-05-22T05:58:35;98259.06;;;21.52;53.81
56414;BME280;42318;48.452;19.526;2023-05-22T06:06:06;98257.16;;;21.52;53.40
56414;BME280;42318;48.452;19.526;2023-05-22T06:13:37;98253.88;;;21.50;53.39
56414;BME280;42318;48.452;19.526;2023-05-22T06:21:08;98259.88;;;21.52;53.41
56414;BME280;42318;48.452;19.526;2023-05-22T06:28:39;98259.59;;;21.54;53.67
56414;BME280;42318;48.452;19.526;2023-05-22T06:36:10;98259.88;;;21.52;53.82
56414;BME280;42318;48.452;19.526;2023-05-22T06:43:41;98262.31;;;21.54;53.37
56414;BME280;42318;48.452;19.526;2023-05-22T06:51:11;98261.50;;;21.53;53.72
56414;BME280;42318;48.452;19.526;2023-05-22T06:58:44;98268.88;;;21.53;53.64
56414;BME280;42318;48.452;19.526;2023-05-22T07:06:15;98268.06;;;21.52;53.66
56414;BME280;42318;48.452;19.526;2023-05-22T07:13:47;98274.31;;;21.53;53.61
56414;BME280;42318;48.452;19.526;2023-05-22T07:21:18;98267.78;;;21.54;53.60
56414;BME280;42318;48.452;19.526;2023-05-22T07:28:49;98265.31;;;21.52;53.48
56414;BME280;42318;48.452;19.526;2023-05-22T07:36:20;98269.41;;;21.55;53.60
56414;BME280;42318;48.452;19.526;2023-05-22T07:43:50;98268.59;;;21.54;53.25
56414;BME280;42318;48.452;19.526;2023-05-22T07:51:21;98257.69;;;21.54;53.36
56414;BME280;42318;48.452;19.526;2023-05-22T07:58:52;98262.31;;;21.54;53.36
56414;BME280;42318;48.452;19.526;2023-05-22T08:06:23;98272.97;;;21.55;53.34
56414;BME280;42318;48.452;19.526;2023-05-22T08:13:54;98262.88;;;21.56;53.15
56414;BME280;42318;48.452;19.526;2023-05-22T08:21:25;98263.69;;;21.56;53.41
56414;BME280;42318;48.452;19.526;2023-05-22T08:28:56;98262.88;;;21.56;53.19
56414;BME280;42318;48.452;19.526;2023-05-22T08:36:28;98265.06;;;21.59;53.26
56414;BME280;42318;48.452;19.526;2023-05-22T08:44:00;98266.97;;;21.58;53.03
56414;BME280;42318;48.452;19.526;2023-05-22T08:51:32;98256.88;;;21.59;53.11
56414;BME280;42318;48.452;19.526;2023-05-22T08:59:04;98260.41;;;21.59;53.03
56414;BME280;42318;48.452;19.526;2023-05-22T09:06:35;98248.44;;;21.60;53.02
56414;BME280;42318;48.452;19.526;2023-05-22T09:14:09;98247.59;;;21.60;53.16
56414;BME280;42318;48.452;19.526;2023-05-22T09:21:40;98236.44;;;21.61;53.00
56414;BME280;42318;48.452;19.526;2023-05-22T09:29:11;98232.06;;;21.60;53.55
56414;BME280;42318;48.452;19.526;2023-05-22T09:36:42;98233.44;;;21.63;53.22
56414;BME280;42318;48.452;19.526;2023-05-22T09:44:14;98228.78;;;21.63;53.47
56414;BME280;42318;48.452;19.526;2023-05-22T09:51:45;98225.78;;;21.65;52.99
56414;BME280;42318;48.452;19.526;2023-05-22T09:59:20;98218.44;;;21.66;52.93
56414;BME280;42318;48.452;19.526;2023-05-22T10:06:56;98220.63;;;21.63;53.16
56414;BME280;42318;48.452;19.526;2023-05-22T10:14:33;98209.97;;;21.67;52.98
56414;BME280;42318;48.452;19.526;2023-05-22T10:22:06;98205.63;;;21.66;52.83
56414;BME280;42318;48.452;19.526;2023-05-22T10:29:45;98196.06;;;21.63;53.34
56414;BME280;42318;48.452;19.526;2023-05-22T10:37:35;98187.94;;;21.69;53.24
56414;BME280;42318;48.452;19.526;2023-05-22T10:45:07;98182.75;;;21.72;53.16
56414;BME280;42318;48.452;19.526;2023-05-22T10:52:38;98186.28;;;21.73;53.11
56414;BME280;42318;48.452;19.526;2023-05-22T11:00:13;98174.84;;;21.71;53.29
56414;BME280;42318;48.452;19.526;2023-05-22T11:07:45;98164.19;;;21.74;52.94
56414;BME280;42318;48.452;19.526;2023-05-22T11:15:16;98157.66;;;21.75;53.05
56414;BME280;42318;48.452;19.526;2023-05-22T11:22:58;98162.00;;;21.76;53.26
56414;BME280;42318;48.452;19.526;2023-05-22T11:30:29;98157.38;;;21.77;52.73
56414;BME280;42318;48.452;19.526;2023-05-22T11:38:04;98143.47;;;21.78;53.05
56414;BME280;42318;48.452;19.526;2023-05-22T11:45:38;98135.81;;;21.80;53.24
56414;BME280;42318;48.452;19.526;2023-05-22T11:53:09;98139.38;;;21.81;53.19
56414;BME280;42318;48.452;19.526;2023-05-22T12:00:41;98131.19;;;21.81;52.89
56414;BME280;42318;48.452;19.526;2023-05-22T12:08:12;98132.81;;;21.82;53.01
56414;BME280;42318;48.452;19.526;2023-05-22T12:15:43;98125.72;;;21.81;53.14
56414;BME280;42318;48.452;19.526;2023-05-22T12:23:24;98114.28;;;21.79;52.99
56414;BME280;42318;48.452;19.526;2023-05-22T12:30:55;98116.44;;;21.82;53.42
56414;BME280;42318;48.452;19.526;2023-05-22T12:38:29;98114.25;;;21.84;53.17
56414;BME280;42318;48.452;19.526;2023-05-22T12:46:00;98104.72;;;21.81;53.19
56414;BME280;42318;48.452;19.526;2023-05-22T12:53:31;98105.81;;;21.85;53.47
56414;BME280;42318;48.452;19.526;2023-05-22T13:01:02;98098.16;;;21.87;53.00
56414;BME280;42318;48.452;19.526;2023-05-22T13:08:32;98085.63;;;21.86;53.54
56414;BME280;42318;48.452;19.526;2023-05-22T13:16:03;98072.78;;;21.87;53.03
56414;BME280;42318;48.452;19.526;2023-05-22T13:23:34;98074.72;;;21.86;53.09
56414;BME280;42318;48.452;19.526;2023-05-22T13:31:05;98078.25;;;21.87;53.36
56414;BME280;42318;48.452;19.526;2023-05-22T13:38:36;98068.97;;;21.88;53.29
56414;BME280;42318;48.452;19.526;2023-05-22T13:46:07;98058.06;;;21.88;53.29
56414;BME280;42318;48.452;19.526;2023-05-22T13:53:37;98066.78;;;21.90;53.49
56414;BME280;42318;48.452;19.526;2023-05-22T14:01:08;98080.16;;;21.91;53.48
56414;BME280;42318;48.452;19.526;2023-05-22T14:08:39;98067.06;;;21.88;53.42
56414;BME280;42318;48.452;19.526;2023-05-22T14:16:10;98061.59;;;21.88;53.53
56414;BME280;42318;48.452;19.526;2023-05-22T14:23:41;98065.16;;;21.89;53.39
56414;BME280;42318;48.452;19.526;2023-05-22T14:31:11;98065.97;;;21.89;53.62
56414;BME280;42318;48.452;19.526;2023-05-22T14:38:42;98066.78;;;21.90;53.20
56414;BME280;42318;48.452;19.526;2023-05-22T14:46:13;98061.34;;;21.90;53.66
56414;BME280;42318;48.452;19.526;2023-05-22T14:53:44;98062.97;;;21.91;53.34
56414;BME280;42318;48.452;19.526;2023-05-22T15:01:15;98062.97;;;21.91;53.72
56414;BME280;42318;48.452;19.526;2023-05-22T15:08:45;98064.06;;;21.90;53.49
56414;BME280;42318;48.452;19.526;2023-05-22T15:16:16;98062.97;;;21.91;53.87
56414;BME280;42318;48.452;19.526;2023-05-22T15:23:47;98057.50;;;21.91;53.77
56414;BME280;42318;48.452;19.526;2023-05-22T15:31:18;98053.16;;;21.90;54.05
56414;BME280;42318;48.452;19.526;2023-05-22T15:38:49;98056.69;;;21.90;53.71
56414;BME280;42318;48.452;19.526;2023-05-22T15:46:20;98062.97;;;21.91;53.57
56414;BME280;42318;48.452;19.526;2023-05-22T15:53:51;98067.31;;;21.92;54.04
56414;BME280;42318;48.452;19.526;2023-05-22T16:01:21;98068.13;;;21.92;53.56
56414;BME280;42318;48.452;19.526;2023-05-22T16:08:52;98067.31;;;21.92;53.97
56414;BME280;42318;48.452;19.526;2023-05-22T16:16:23;98070.88;;;21.92;53.57
56414;BME280;42318;48.452;19.526;2023-05-22T16:23:54;98082.59;;;21.93;53.51
56414;BME280;42318;48.452;19.526;2023-05-22T16:31:25;98074.16;;;21.89;53.71
56414;BME280;42318;48.452;19.526;2023-05-22T16:38:55;98074.69;;;21.91;53.99
56414;BME280;42318;48.452;19.526;2023-05-22T16:46:26;98071.16;;;21.91;54.03
56414;BME280;42318;48.452;19.526;2023-05-22T16:53:57;98075.78;;;21.90;54.13
56414;BME280;42318;48.452;19.526;2023-05-22T17:01:28;98072.78;;;21.87;53.63
56414;BME280;42318;48.452;19.526;2023-05-22T17:08:59;98073.88;;;21.91;54.12
56414;BME280;42318;48.452;19.526;2023-05-22T17:16:30;98060.22;;;21.91;53.83
56414;BME280;42318;48.452;19.526;2023-05-22T17:24:01;98077.41;;;21.91;53.52
56414;BME280;42318;48.452;19.526;2023-05-22T17:31:32;98062.44;;;21.89;53.89
56414;BME280;42318;48.452;19.526;2023-05-22T17:39:03;98063.53;;;21.88;53.82
56414;BME280;42318;48.452;19.526;2023-05-22T17:46:34;98056.97;;;21.89;53.81
56414;BME280;42318;48.452;19.526;2023-05-22T17:54:05;98058.59;;;21.90;54.14
56414;BME280;42318;48.452;19.526;2023-05-22T18:01:37;98055.06;;;21.89;54.45
56414;BME280;42318;48.452;19.526;2023-05-22T18:09:08;98055.06;;;21.89;54.70
56414;BME280;42318;48.452;19.526;2023-05-22T18:16:39;98052.34;;;21.89;54.77
56414;BME280;42318;48.452;19.526;2023-05-22T18:24:11;98051.78;;;21.92;54.97
56414;BME280;42318;48.452;19.526;2023-05-22T18:31:42;98060.22;;;21.96;55.25
56414;BME280;42318;48.452;19.526;2023-05-22T18:39:13;98066.50;;;21.97;55.00
56414;BME280;42318;48.452;19.526;2023-05-22T18:46:44;98064.56;;;21.97;54.93
56414;BME280;42318;48.452;19.526;2023-05-22T18:54:15;98078.75;;;21.99;54.98
56414;BME280;42318;48.452;19.526;2023-05-22T19:01:45;98080.38;;;22.00;54.82
56414;BME280;42318;48.452;19.526;2023-05-22T19:09:16;98097.28;;;22.02;54.58
56414;BME280;42318;48.452;19.526;2023-05-22T19:16:47;98105.47;;;22.02;54.58
56414;BME280;42318;48.452;19.526;2023-05-22T19:24:18;98108.19;;;22.02;54.46
56414;BME280;42318;48.452;19.526;2023-05-22T19:31:49;98101.13;;;22.01;54.32
56414;BME280;42318;48.452;19.526;2023-05-22T19:39:20;98105.47;;;22.02;54.70
56414;BME280;42318;48.452;19.526;2023-05-22T19:46:50;98102.75;;;22.02;54.34
56414;BME280;42318;48.452;19.526;2023-05-22T19:54:23;98096.47;;;22.02;54.22
56414;BME280;42318;48.452;19.526;2023-05-22T20:01:54;98097.28;;;22.02;54.59
56414;BME280;42318;48.452;19.526;2023-05-22T20:09:25;98100.03;;;22.02;54.39
56414;BME280;42318;48.452;19.526;2023-05-22T20:16:56;98103.56;;;22.03;54.65
56414;BME280;42318;48.452;19.526;2023-05-22T20:24:28;98100.03;;;22.02;54.33
56414;BME280;42318;48.452;19.526;2023-05-22T20:32:00;98105.47;;;22.02;54.46
56414;BME280;42318;48.452;19.526;2023-05-22T20:39:31;98106.28;;;22.03;54.28
56414;BME280;42318;48.452;19.526;2023-05-22T20:47:02;98096.22;;;21.98;54.29
56414;BME280;42318;48.452;19.526;2023-05-22T20:54:33;98110.13;;;22.02;54.41
56414;BME280;42318;48.452;19.526;2023-05-22T21:02:03;98118.56;;;22.00;54.21
56414;BME280;42318;48.452;19.526;2023-05-22T21:09:34;98108.75;;;21.99;54.09
56414;BME280;42318;48.452;19.526;2023-05-22T21:17:05;98101.38;;;22.00;54.02
56414;BME280;42318;48.452;19.526;2023-05-22T21:24:36;98107.66;;;22.00;54.12
56414;BME280;42318;48.452;19.526;2023-05-22T21:32:07;98112.59;;;21.98;53.81
56414;BME280;42318;48.452;19.526;2023-05-22T21:39:38;98111.75;;;21.98;54.15
56414;BME280;42318;48.452;19.526;2023-05-22T21:47:09;98108.22;;;21.97;54.11
56414;BME280;42318;48.452;19.526;2023-05-22T21:54:39;98103.31;;;21.94;53.77
56414;BME280;42318;48.452;19.526;2023-05-22T22:02:10;98098.41;;;21.96;53.82
56414;BME280;42318;48.452;19.526;2023-05-22T22:09:41;98096.78;;;21.95;53.82
56414;BME280;42318;48.452;19.526;2023-05-22T22:17:12;98091.03;;;21.97;53.75
56414;BME280;42318;48.452;19.526;2023-05-22T22:24:46;98094.84;;;21.95;53.93
56414;BME280;42318;48.452;19.526;2023-05-22T22:32:16;98096.78;;;21.95;53.69
56414;BME280;42318;48.452;19.526;2023-05-22T22:39:47;98103.03;;;21.95;53.66
56414;BME280;42318;48.452;19.526;2023-05-22T22:47:18;98103.31;;;21.94;53.91
56414;BME280;42318;48.452;19.526;2023-05-22T22:54:49;98099.78;;;21.93;53.90
56414;BME280;42318;48.452;19.526;2023-05-22T23:02:20;98096.50;;;21.91;53.70
56414;BME280;42318;48.452;19.526;2023-05-22T23:09:51;98098.41;;;21.91;53.67
56414;BME280;42318;48.452;19.526;2023-05-22T23:17:22;98090.25;;;21.91;54.14
56414;BME280;42318;48.452;19.526;2023-05-22T23:24:52;98093.78;;;21.91;53.56
56414;BME280;42318;48.452;19.526;2023-05-22T23:32:23;98099.25;;;21.91;53.72
56414;BME280;42318;48.452;19.526;2023-05-22T23:39:54;98106.06;;;21.89;53.86
56414;BME280;42318;48.452;19.526;2023-05-22T23:47:25;98104.44;;;21.88;53.74
56414;BME280;42318;48.452;19.526;2023-05-22T23:54:55;98103.06;;;21.85;53.75
